Time;durP1;ratioP1;P1;durP2;ratioP2;P2;SDS_P1;SDS_P2;PMS_P1;PMS_P2;Temp;Humidity;BMP_temperature;BMP_pressure;BME280_temperature;BME280_humidity;BME280_pressure;Samples;Min_cycle;Max_cycle;Signal;HPM_P1;HPM_P2
2022/12/08 00:01:41;;;;;;;8.90;5.38;;;3.50;99.90;;;;;;5011435;28;20406;-75
2022/12/08 00:04:07;;;;;;;12.45;6.28;;;3.40;99.90;;;;;;5002503;28;20447;-76
2022/12/08 00:09:23;;;;;;;11.63;6.35;;;3.40;99.90;;;;;;5010553;28;20088;-76
2022/12/08 00:12:06;;;;;;;13.68;6.75;;;3.40;99.90;;;;;;5012728;28;20034;-76
2022/12/08 00:14:35;;;;;;;10.32;6.32;;;3.40;99.90;;;;;;5004967;28;20037;-75
2022/12/08 00:17:02;;;;;;;10.45;6.10;;;3.30;99.90;;;;;;5011951;28;20038;-76
2022/12/08 00:19:28;;;;;;;12.48;7.45;;;3.30;99.90;;;;;;5010340;28;20022;-76
2022/12/08 00:21:55;;;;;;;11.35;6.00;;;3.30;99.90;;;;;;5009395;28;20083;-75
2022/12/08 00:24:22;;;;;;;11.23;6.38;;;3.20;99.90;;;;;;5010973;28;20022;-76
2022/12/08 00:26:48;;;;;;;10.80;5.85;;;3.20;99.90;;;;;;5011390;28;20037;-75
2022/12/08 00:29:14;;;;;;;8.65;5.43;;;3.30;99.90;;;;;;5010344;28;20026;-75
2022/12/08 00:31:40;;;;;;;9.05;5.80;;;3.20;99.90;;;;;;5011797;28;20032;-75
2022/12/08 00:34:06;;;;;;;10.80;6.00;;;3.10;99.90;;;;;;5011309;28;20033;-75
2022/12/08 00:36:34;;;;;;;10.93;6.75;;;3.10;99.90;;;;;;5009666;28;20029;-75
2022/12/08 00:39:00;;;;;;;11.77;6.07;;;3.00;99.90;;;;;;5011630;28;20614;-76
2022/12/08 00:44:19;;;;;;;10.57;5.88;;;2.90;99.90;;;;;;5006487;28;20403;-75
2022/12/08 00:46:46;;;;;;;11.60;6.38;;;2.90;99.90;;;;;;5006223;28;20064;-75
2022/12/08 00:49:13;;;;;;;12.10;6.05;;;2.80;99.90;;;;;;5009899;28;20026;-75
2022/12/08 00:51:38;;;;;;;11.45;6.05;;;2.80;99.90;;;;;;5002396;28;20038;-75
2022/12/08 00:54:05;;;;;;;9.77;5.93;;;2.80;99.90;;;;;;5011653;28;20026;-75
2022/12/08 00:56:32;;;;;;;9.23;5.88;;;2.70;99.90;;;;;;5005596;28;20117;-76
2022/12/08 00:59:05;;;;;;;14.02;6.93;;;2.70;99.90;;;;;;5010037;28;20037;-76
2022/12/08 01:01:37;;;;;;;10.45;5.70;;;2.70;99.90;;;;;;5010360;28;20057;-76
2022/12/08 01:04:09;;;;;;;11.55;6.70;;;2.70;99.90;;;;;;5012559;28;20040;-76
2022/12/08 01:06:35;;;;;;;10.43;5.78;;;2.60;99.90;;;;;;5023075;28;20038;-76
2022/12/08 01:09:01;;;;;;;13.05;6.90;;;2.60;99.90;;;;;;5002759;28;20029;-75
2022/12/08 01:11:31;;;;;;;12.43;6.38;;;2.60;99.90;;;;;;5013301;28;20022;-76
2022/12/08 01:13:56;;;;;;;9.68;5.80;;;2.50;99.90;;;;;;5008374;28;20613;-76
2022/12/08 01:16:24;;;;;;;9.57;5.80;;;2.50;99.90;;;;;;5006197;28;20056;-76
2022/12/08 01:18:55;;;;;;;9.63;5.97;;;2.50;99.90;;;;;;5003144;28;20030;-76
2022/12/08 01:21:21;;;;;;;11.32;5.97;;;2.40;99.90;;;;;;5010273;28;20034;-76
2022/12/08 01:23:46;;;;;;;11.15;6.30;;;2.30;99.90;;;;;;5010980;28;20033;-76
2022/12/08 01:26:14;;;;;;;10.20;6.13;;;2.30;99.90;;;;;;5012486;28;20081;-75
2022/12/08 01:28:41;;;;;;;9.88;5.72;;;2.30;99.90;;;;;;5012778;28;20097;-75
2022/12/08 01:31:12;;;;;;;9.45;6.07;;;2.20;99.90;;;;;;5012793;28;20026;-75
2022/12/08 01:33:37;;;;;;;11.27;6.20;;;2.20;99.90;;;;;;5011525;28;20029;-74
2022/12/08 01:36:04;;;;;;;12.80;6.47;;;2.20;99.90;;;;;;5011002;28;20588;-75
2022/12/08 01:38:30;;;;;;;11.13;5.97;;;2.10;99.90;;;;;;5011798;28;20026;-77
2022/12/08 01:40:56;;;;;;;13.88;7.13;;;2.10;99.90;;;;;;4997399;28;20030;-75
2022/12/08 01:43:21;;;;;;;12.80;6.80;;;2.00;99.90;;;;;;5010210;28;20026;-75
2022/12/08 01:45:47;;;;;;;11.65;5.47;;;2.00;99.90;;;;;;5011502;28;20022;-75
2022/12/08 01:48:39;;;;;;;14.68;6.53;;;1.90;99.90;;;;;;5012730;28;20033;-75
2022/12/08 01:51:05;;;;;;;15.25;6.55;;;1.90;99.90;;;;;;5003814;28;20049;-75
2022/12/08 01:53:32;;;;;;;10.38;6.25;;;1.80;99.90;;;;;;5008406;28;20026;-76
2022/12/08 01:56:07;;;;;;;12.35;6.07;;;1.80;99.90;;;;;;5010655;28;20362;-75
2022/12/08 01:58:40;;;;;;;13.40;6.45;;;1.80;99.90;;;;;;5004248;28;20046;-76
2022/12/08 02:01:10;;;;;;;11.77;6.05;;;1.80;99.90;;;;;;4993150;28;20507;-76
2022/12/08 02:03:55;;;;;;;10.27;6.10;;;1.70;99.90;;;;;;4998477;28;20132;-77
2022/12/08 02:06:20;;;;;;;10.27;5.97;;;1.70;99.90;;;;;;5018869;28;20029;-76
2022/12/08 02:08:47;;;;;;;10.40;5.57;;;1.70;99.90;;;;;;5011755;28;20022;-77
2022/12/08 02:11:13;;;;;;;12.48;6.93;;;1.70;99.90;;;;;;5011653;28;20040;-77
2022/12/08 02:13:40;;;;;;;16.67;9.40;;;1.60;99.90;;;;;;5012385;28;20030;-77
2022/12/08 02:16:27;;;;;;;22.48;13.05;;;1.60;99.90;;;;;;5014371;28;20030;-76
2022/12/08 02:19:24;;;;;;;21.50;13.18;;;1.60;99.90;;;;;;5011715;28;20072;-76
2022/12/08 02:22:11;;;;;;;17.17;11.57;;;1.60;99.90;;;;;;5006283;28;20026;-77
2022/12/08 02:24:55;;;;;;;18.42;10.85;;;1.60;99.90;;;;;;5015857;28;20229;-77
2022/12/08 02:27:23;;;;;;;18.48;11.07;;;1.50;99.90;;;;;;5014193;28;20025;-77
2022/12/08 02:30:24;;;;;;;16.52;10.00;;;1.50;99.90;;;;;;5011904;28;20030;-76
2022/12/08 02:33:04;;;;;;;16.90;11.07;;;1.50;99.90;;;;;;5015713;28;20037;-75
2022/12/08 02:35:38;;;;;;;18.08;10.32;;;1.50;99.90;;;;;;5014285;28;20037;-76
2022/12/08 02:38:16;;;;;;;13.10;8.68;;;1.50;99.90;;;;;;5010677;28;20542;-76
2022/12/08 02:41:02;;;;;;;13.27;8.57;;;1.40;99.90;;;;;;5008102;28;20029;-76
2022/12/08 02:43:59;;;;;;;14.93;9.90;;;1.40;99.90;;;;;;5015601;28;20025;-77
2022/12/08 02:46:39;;;;;;;14.82;8.80;;;1.40;99.90;;;;;;5009927;28;20029;-77
2022/12/08 02:49:06;;;;;;;14.18;8.73;;;1.30;99.90;;;;;;5008205;28;20030;-77
2022/12/08 02:51:31;;;;;;;15.02;9.35;;;1.30;99.90;;;;;;5015370;28;20025;-77
2022/12/08 02:53:59;;;;;;;15.68;8.00;;;1.30;99.90;;;;;;5018988;28;20045;-77
2022/12/08 02:56:40;;;;;;;14.55;8.45;;;1.30;99.90;;;;;;5015358;28;20108;-77
2022/12/08 02:59:15;;;;;;;16.35;8.23;;;1.30;99.90;;;;;;5008818;28;20113;-76
2022/12/08 03:01:53;;;;;;;14.18;7.93;;;1.20;99.90;;;;;;5006490;28;20045;-76
2022/12/08 03:04:40;;;;;;;14.40;7.95;;;1.20;99.90;;;;;;5015085;28;20060;-76
2022/12/08 03:07:14;;;;;;;14.80;7.90;;;1.20;99.90;;;;;;4996110;28;20022;-76
2022/12/08 03:10:09;;;;;;;9.85;6.65;;;1.20;99.90;;;;;;5012205;28;20113;-76
2022/12/08 03:13:11;;;;;;;14.73;6.85;;;1.20;99.90;;;;;;5015224;28;20037;-76
2022/12/08 03:15:47;;;;;;;10.25;6.90;;;1.10;99.90;;;;;;5013721;28;20474;-75
2022/12/08 03:18:15;;;;;;;13.10;7.13;;;1.10;99.90;;;;;;5014741;28;20029;-75
2022/12/08 03:20:43;;;;;;;13.43;6.68;;;1.10;99.90;;;;;;5014856;28;20029;-76
2022/12/08 03:23:16;;;;;;;12.82;5.57;;;1.00;99.90;;;;;;5014688;28;20111;-76
2022/12/08 03:26:10;;;;;;;10.98;6.28;;;1.00;99.90;;;;;;5013263;28;20030;-75
2022/12/08 03:28:39;;;;;;;10.93;5.63;;;1.00;99.90;;;;;;5006287;28;20399;-77
2022/12/08 03:31:09;;;;;;;11.85;6.47;;;0.90;99.90;;;;;;5008727;28;20033;-77
2022/12/08 03:33:42;;;;;;;11.52;5.97;;;0.90;99.90;;;;;;5014887;28;20034;-76
2022/12/08 03:36:09;;;;;;;10.88;6.07;;;0.90;99.90;;;;;;5005911;28;20030;-76
2022/12/08 03:38:48;;;;;;;14.48;5.88;;;0.90;99.90;;;;;;5013575;28;20041;-76
2022/12/08 03:41:20;;;;;;;12.57;6.32;;;0.90;99.90;;;;;;5016742;28;20029;-76
2022/12/08 03:43:53;;;;;;;8.73;4.82;;;0.90;99.90;;;;;;5027507;28;20034;-77
2022/12/08 03:46:22;;;;;;;9.70;5.53;;;0.90;99.90;;;;;;5013275;28;20105;-74
2022/12/08 03:48:54;;;;;;;10.45;5.63;;;0.80;99.90;;;;;;5013786;28;20073;-76
2022/12/08 03:51:23;;;;;;;13.70;6.57;;;0.80;99.90;;;;;;5012851;28;20454;-76
2022/12/08 03:53:49;;;;;;;12.15;6.00;;;0.80;99.90;;;;;;5014529;28;20100;-77
2022/12/08 03:56:21;;;;;;;11.93;6.05;;;0.80;99.90;;;;;;5014332;28;20030;-76
2022/12/08 03:58:47;;;;;;;13.93;6.93;;;0.80;99.90;;;;;;5013009;28;20486;-76
2022/12/08 04:01:12;;;;;;;10.38;5.13;;;0.80;99.90;;;;;;5012884;28;20022;-76
2022/12/08 04:03:38;;;;;;;10.82;5.55;;;0.80;99.90;;;;;;5013015;28;20034;-76
2022/12/08 04:06:04;;;;;;;10.63;5.15;;;0.80;99.90;;;;;;5013953;28;20056;-76
2022/12/08 04:08:30;;;;;;;11.13;5.28;;;0.70;99.90;;;;;;5013992;28;20018;-76
2022/12/08 04:10:58;;;;;;;9.32;5.43;;;0.70;99.90;;;;;;5012951;28;20227;-76
2022/12/08 04:13:27;;;;;;;12.65;5.82;;;0.70;99.90;;;;;;5014249;28;20434;-76
2022/12/08 04:15:55;;;;;;;9.98;5.70;;;0.70;99.90;;;;;;5013172;28;20982;-77
2022/12/08 04:18:21;;;;;;;11.70;5.70;;;0.70;99.90;;;;;;5010374;28;20372;-76
2022/12/08 04:20:52;;;;;;;9.27;5.22;;;0.70;99.90;;;;;;5013238;28;20037;-76
2022/12/08 04:23:21;;;;;;;8.68;5.45;;;0.70;99.90;;;;;;5010126;28;20423;-77
2022/12/08 04:25:51;;;;;;;8.07;4.88;;;0.70;99.90;;;;;;5010860;28;20511;-77
2022/12/08 04:28:16;;;;;;;10.43;4.75;;;0.60;99.90;;;;;;5012404;28;20097;-75
2022/12/08 04:30:42;;;;;;;10.27;5.13;;;0.60;99.90;;;;;;5013468;28;20105;-75
2022/12/08 04:33:08;;;;;;;9.90;5.30;;;0.60;99.90;;;;;;5021074;28;20026;-75
2022/12/08 04:35:36;;;;;;;10.63;5.10;;;0.60;99.90;;;;;;5005278;28;20033;-76
2022/12/08 04:38:02;;;;;;;9.45;4.82;;;0.60;99.90;;;;;;5006048;28;20338;-76
2022/12/08 04:40:27;;;;;;;9.63;5.32;;;0.50;99.90;;;;;;5009624;28;20029;-76
2022/12/08 04:42:56;;;;;;;10.75;4.88;;;0.60;99.90;;;;;;5008130;28;20371;-76
2022/12/08 04:45:24;;;;;;;11.15;4.50;;;0.60;99.90;;;;;;5006850;28;20036;-76
2022/12/08 04:47:53;;;;;;;7.78;4.57;;;0.50;99.90;;;;;;5005603;28;20037;-77
2022/12/08 04:50:19;;;;;;;7.72;4.22;;;0.50;99.90;;;;;;5009302;28;20725;-76
2022/12/08 04:52:44;;;;;;;7.78;4.72;;;0.60;99.90;;;;;;5019718;28;20033;-76
2022/12/08 04:55:13;;;;;;;10.05;4.40;;;0.50;99.90;;;;;;5016034;28;20117;-76
2022/12/08 04:57:42;;;;;;;8.32;4.05;;;0.50;99.90;;;;;;5007882;28;20062;-76
2022/12/08 05:00:08;;;;;;;7.88;4.32;;;0.50;99.90;;;;;;5014743;28;20057;-76
2022/12/08 05:02:34;;;;;;;11.32;4.55;;;0.50;99.90;;;;;;4989257;23;20046;-77
2022/12/08 05:04:59;;;;;;;7.57;4.10;;;0.50;99.90;;;;;;4965391;28;20047;-77
2022/12/08 05:07:25;;;;;;;9.82;4.60;;;0.50;99.90;;;;;;4981156;28;20033;-77
2022/12/08 05:09:50;;;;;;;6.82;4.30;;;0.40;99.90;;;;;;4968406;28;20522;-77
2022/12/08 05:12:16;;;;;;;7.78;3.90;;;0.40;99.90;;;;;;4969473;28;20418;-77
2022/12/08 05:14:42;;;;;;;6.85;3.90;;;0.40;99.90;;;;;;4989971;23;20038;-77
2022/12/08 05:17:07;;;;;;;10.02;4.47;;;0.40;99.90;;;;;;4991726;28;20030;-78
2022/12/08 05:19:36;;;;;;;7.95;4.32;;;0.40;99.90;;;;;;4995489;28;20049;-77
2022/12/08 05:22:05;;;;;;;8.95;5.10;;;0.40;99.90;;;;;;4978341;28;20085;-77
2022/12/08 05:24:34;;;;;;;10.27;5.03;;;0.40;99.90;;;;;;4970735;28;20035;-77
2022/12/08 05:26:59;;;;;;;10.55;5.55;;;0.30;99.90;;;;;;4975852;28;20033;-77
2022/12/08 05:29:28;;;;;;;10.48;4.93;;;0.20;99.90;;;;;;4971793;28;20035;-77
2022/12/08 05:31:59;;;;;;;9.30;5.50;;;0.30;99.90;;;;;;4990030;28;20030;-77
2022/12/08 05:34:25;;;;;;;12.27;5.45;;;0.20;99.90;;;;;;4971546;28;20027;-78
2022/12/08 05:36:54;;;;;;;10.18;5.03;;;0.10;99.90;;;;;;4976359;28;20093;-78
2022/12/08 05:39:20;;;;;;;10.07;5.53;;;0.10;99.90;;;;;;4967798;28;20082;-76
2022/12/08 05:41:45;;;;;;;10.38;5.13;;;0.10;99.90;;;;;;4966710;28;20035;-76
2022/12/08 05:44:11;;;;;;;10.27;5.05;;;0.00;99.90;;;;;;4967580;28;20037;-77
2022/12/08 05:46:43;;;;;;;9.48;5.28;;;0.00;99.90;;;;;;4969106;28;20046;-77
2022/12/08 05:49:08;;;;;;;10.20;5.57;;;0.00;99.90;;;;;;4971916;28;20051;-75
2022/12/08 05:51:40;;;;;;;11.32;6.10;;;-0.10;99.90;;;;;;4969128;28;20051;-77
2022/12/08 05:54:05;;;;;;;11.73;5.70;;;-0.10;99.90;;;;;;4974809;28;20467;-78
2022/12/08 05:56:31;;;;;;;11.32;6.88;;;-0.10;99.90;;;;;;4980303;28;20085;-78
2022/12/08 05:58:57;;;;;;;14.63;7.00;;;-0.20;99.90;;;;;;4981349;28;20089;-78
2022/12/08 06:01:27;;;;;;;12.20;6.40;;;-0.20;99.90;;;;;;4971847;28;20034;-77
2022/12/08 06:03:54;;;;;;;16.65;6.10;;;-0.20;99.90;;;;;;4974710;28;20038;-77
2022/12/08 06:06:20;;;;;;;16.02;6.35;;;-0.20;99.90;;;;;;4974032;28;20508;-78
2022/12/08 06:08:46;;;;;;;16.35;7.40;;;-0.20;99.90;;;;;;4979769;28;20075;-78
2022/12/08 06:11:23;;;;;;;13.10;6.30;;;-0.20;99.90;;;;;;4977923;28;20047;-78
2022/12/08 06:13:50;;;;;;;13.02;5.95;;;-0.20;99.90;;;;;;4979510;28;20023;-78
2022/12/08 06:16:16;;;;;;;10.38;6.07;;;-0.20;99.90;;;;;;4978942;28;20066;-78
2022/12/08 06:18:45;;;;;;;12.55;6.03;;;-0.30;99.90;;;;;;4972306;28;20034;-77
2022/12/08 06:21:15;;;;;;;13.70;6.18;;;-0.30;99.90;;;;;;4966677;28;20035;-77
2022/12/08 06:23:52;;;;;;;12.60;6.22;;;-0.30;99.90;;;;;;4976579;28;20043;-76
2022/12/08 06:26:18;;;;;;;12.52;5.75;;;-0.30;99.90;;;;;;4976638;28;20121;-77
2022/12/08 06:28:44;;;;;;;11.50;6.22;;;-0.30;99.90;;;;;;4975129;28;20117;-77
2022/12/08 06:31:15;;;;;;;14.50;6.75;;;-0.40;99.90;;;;;;4965672;28;20444;-76
2022/12/08 06:33:41;;;;;;;13.35;7.22;;;-0.30;99.90;;;;;;4970205;28;20116;-72
2022/12/08 06:36:09;;;;;;;14.27;8.27;;;-0.30;99.90;;;;;;4972463;28;20031;-72
2022/12/08 06:38:34;;;;;;;16.55;7.22;;;-0.30;99.90;;;;;;4973101;28;20038;-71
2022/12/08 06:41:00;;;;;;;12.77;7.40;;;-0.30;99.90;;;;;;4973652;28;20049;-77
2022/12/08 06:43:26;;;;;;;13.63;7.40;;;-0.30;99.90;;;;;;4976164;28;20468;-76
2022/12/08 06:45:52;;;;;;;12.75;6.90;;;-0.30;99.90;;;;;;4975970;28;20105;-76
2022/12/08 06:48:18;;;;;;;14.90;6.57;;;-0.20;99.90;;;;;;4972190;28;20034;-77
2022/12/08 06:50:44;;;;;;;12.70;6.47;;;-0.30;99.90;;;;;;4974313;28;20027;-76
2022/12/08 06:53:15;;;;;;;12.65;6.40;;;-0.20;99.90;;;;;;4980109;28;20164;-76
2022/12/08 06:55:45;;;;;;;10.98;6.57;;;-0.30;99.90;;;;;;4972879;28;20447;-76
2022/12/08 06:58:12;;;;;;;13.93;6.55;;;-0.20;99.90;;;;;;4973206;28;20093;-76
2022/12/08 07:00:44;;;;;;;13.35;5.93;;;-0.20;99.90;;;;;;4974621;28;20065;-77
2022/12/08 07:03:11;;;;;;;9.93;5.88;;;-0.20;99.90;;;;;;4971229;28;20475;-76
2022/12/08 07:05:42;;;;;;;9.20;4.95;;;-0.10;99.90;;;;;;4976856;28;20031;-76
2022/12/08 07:08:11;;;;;;;11.25;5.90;;;-0.10;99.90;;;;;;4976897;28;20080;-75
2022/12/08 07:10:40;;;;;;;14.00;6.30;;;-0.10;99.90;;;;;;4989446;28;20054;-75
2022/12/08 07:13:05;;;;;;;15.82;7.18;;;-0.10;99.90;;;;;;4970628;28;20092;-75
2022/12/08 07:15:31;;;;;;;13.85;7.50;;;0.00;99.90;;;;;;4976318;28;20113;-75
2022/12/08 07:18:02;;;;;;;13.32;6.53;;;-0.10;99.90;;;;;;4971876;28;20118;-75
2022/12/08 07:20:34;;;;;;;12.20;6.53;;;0.00;99.90;;;;;;4972505;28;20034;-75
2022/12/08 07:23:09;;;;;;;11.82;6.47;;;0.00;99.90;;;;;;4970894;28;20031;-75
2022/12/08 07:25:38;;;;;;;15.35;7.82;;;0.10;99.90;;;;;;4978988;28;20029;-75
2022/12/08 07:28:10;;;;;;;13.23;7.07;;;0.10;99.90;;;;;;4971207;28;20019;-75
2022/12/08 07:30:44;;;;;;;15.23;7.10;;;0.10;99.90;;;;;;4973441;28;20058;-75
2022/12/08 07:33:10;;;;;;;16.50;7.20;;;0.10;99.90;;;;;;4976867;28;20077;-75
2022/12/08 07:35:36;;;;;;;13.35;6.80;;;0.10;99.90;;;;;;4975732;28;20403;-75
2022/12/08 07:38:02;;;;;;;13.95;7.40;;;0.10;99.90;;;;;;4981667;28;20138;-75
2022/12/08 07:40:27;;;;;;;12.32;5.90;;;0.10;99.90;;;;;;4971595;28;20037;-76
2022/12/08 07:42:53;;;;;;;13.43;6.18;;;0.10;99.90;;;;;;4974860;28;20027;-74
2022/12/08 07:45:18;;;;;;;12.50;6.20;;;0.10;99.90;;;;;;4973672;28;20034;-75
2022/12/08 07:47:44;;;;;;;13.57;6.32;;;0.10;99.90;;;;;;4974058;28;20022;-75
2022/12/08 07:50:10;;;;;;;16.13;7.45;;;0.10;99.90;;;;;;4970052;28;20041;-75
2022/12/08 07:52:35;;;;;;;15.60;7.10;;;0.10;99.90;;;;;;4970439;28;20026;-75
2022/12/08 07:55:01;;;;;;;15.52;6.30;;;0.20;99.90;;;;;;4973464;28;20030;-76
2022/12/08 07:57:27;;;;;;;16.95;5.90;;;0.20;99.90;;;;;;4994657;28;20026;-76
2022/12/08 07:59:52;;;;;;;9.95;5.40;;;0.20;99.90;;;;;;4979174;28;20030;-76
2022/12/08 08:02:18;;;;;;;13.10;5.93;;;0.30;99.90;;;;;;4972661;28;20046;-78
2022/12/08 08:04:44;;;;;;;15.65;5.85;;;0.20;99.90;;;;;;4974422;28;20094;-76
2022/12/08 08:07:10;;;;;;;14.05;6.53;;;0.30;99.90;;;;;;4975222;28;20026;-76
2022/12/08 08:09:36;;;;;;;12.60;6.68;;;0.30;99.90;;;;;;4974001;28;20027;-77
2022/12/08 08:12:09;;;;;;;12.25;6.72;;;0.30;99.90;;;;;;4977971;28;20046;-78
2022/12/08 08:14:34;;;;;;;13.02;6.47;;;0.40;99.90;;;;;;4985647;28;20030;-78
2022/12/08 08:17:00;;;;;;;14.48;6.82;;;0.40;99.90;;;;;;4976505;28;20081;-78
2022/12/08 08:19:29;;;;;;;12.32;6.80;;;0.40;99.90;;;;;;4981546;28;20061;-78
2022/12/08 08:21:54;;;;;;;13.60;5.80;;;0.40;99.90;;;;;;4986891;28;20031;-78
2022/12/08 08:24:21;;;;;;;16.95;6.43;;;0.40;99.90;;;;;;4990507;28;20101;-77
2022/12/08 08:26:46;;;;;;;13.80;6.85;;;0.40;99.90;;;;;;4976375;28;20392;-77
2022/12/08 08:29:15;;;;;;;13.93;6.82;;;0.40;99.90;;;;;;4978119;28;20019;-76
2022/12/08 08:31:43;;;;;;;15.18;7.05;;;0.40;99.90;;;;;;4975227;28;20088;-78
2022/12/08 08:34:09;;;;;;;14.38;7.25;;;0.40;99.90;;;;;;4977114;28;20487;-76
2022/12/08 08:36:35;;;;;;;12.90;6.88;;;0.50;99.90;;;;;;4973682;28;20039;-77
2022/12/08 08:39:01;;;;;;;15.65;7.38;;;0.50;99.90;;;;;;4978355;28;20026;-77
2022/12/08 08:41:26;;;;;;;17.83;7.22;;;0.50;99.90;;;;;;4984724;28;20102;-76
2022/12/08 08:43:53;;;;;;;18.20;7.40;;;0.50;99.90;;;;;;4977443;28;20027;-77
2022/12/08 08:46:19;;;;;;;14.52;7.47;;;0.50;99.90;;;;;;4964414;28;20435;-74
2022/12/08 08:48:45;;;;;;;18.40;7.40;;;0.50;99.90;;;;;;4968449;28;20043;-75
2022/12/08 08:51:13;;;;;;;16.00;7.00;;;0.50;99.90;;;;;;4969587;28;20054;-75
2022/12/08 08:53:39;;;;;;;24.98;8.88;;;0.60;99.90;;;;;;4970334;28;20034;-75
2022/12/08 08:56:15;;;;;;;16.67;8.93;;;0.60;99.90;;;;;;4971573;28;20511;-75
2022/12/08 08:58:41;;;;;;;14.43;7.07;;;0.60;99.90;;;;;;4972223;28;20046;-77
2022/12/08 09:01:07;;;;;;;17.52;7.68;;;0.60;99.90;;;;;;4968402;28;20034;-75
2022/12/08 09:03:34;;;;;;;18.10;8.63;;;0.70;99.90;;;;;;4975941;28;20046;-75
2022/12/08 09:06:00;;;;;;;15.20;7.22;;;0.70;99.90;;;;;;4970504;28;20037;-75
2022/12/08 09:08:25;;;;;;;13.50;7.95;;;0.80;99.90;;;;;;4965136;28;20037;-75
2022/12/08 09:10:51;;;;;;;17.27;7.75;;;0.90;99.90;;;;;;4969164;28;20046;-74
2022/12/08 09:13:17;;;;;;;14.70;7.53;;;0.90;99.90;;;;;;4970916;28;20042;-75
2022/12/08 09:15:42;;;;;;;13.02;7.00;;;1.00;99.90;;;;;;4972510;28;20030;-75
2022/12/08 09:18:08;;;;;;;15.48;7.88;;;1.00;99.90;;;;;;4962969;28;20037;-75
2022/12/08 09:20:34;;;;;;;13.43;7.05;;;1.10;99.90;;;;;;4966594;28;20042;-77
2022/12/08 09:23:00;;;;;;;20.75;7.65;;;1.10;99.90;;;;;;4958138;28;20495;-77
2022/12/08 09:25:27;;;;;;;13.95;7.15;;;1.20;99.90;;;;;;4964892;28;20030;-76
2022/12/08 09:27:52;;;;;;;15.65;7.05;;;1.20;99.90;;;;;;4975622;28;20026;-76
2022/12/08 09:30:18;;;;;;;16.20;6.97;;;1.30;99.90;;;;;;4976117;28;20027;-76
2022/12/08 09:32:44;;;;;;;15.15;7.63;;;1.40;99.90;;;;;;4972086;28;20050;-76
2022/12/08 09:35:09;;;;;;;11.45;6.43;;;1.40;99.90;;;;;;4973879;28;20038;-76
2022/12/08 09:37:35;;;;;;;14.93;6.82;;;1.50;99.90;;;;;;4970821;28;20508;-76
2022/12/08 09:40:05;;;;;;;19.27;7.90;;;1.50;99.90;;;;;;4972529;28;20042;-78
2022/12/08 09:42:43;;;;;;;12.75;7.00;;;1.60;99.90;;;;;;4992552;28;20059;-77
2022/12/08 09:45:12;;;;;;;18.00;7.78;;;1.60;99.90;;;;;;4973829;28;20110;-77
2022/12/08 09:48:04;;;;;;;14.15;6.70;;;1.70;99.90;;;;;;4971025;28;20423;-77
2022/12/08 09:50:38;;;;;;;16.63;7.32;;;1.70;99.90;;;;;;4970862;28;20027;-77
2022/12/08 09:53:25;;;;;;;13.75;6.70;;;1.70;99.90;;;;;;4971617;28;20131;-81
2022/12/08 09:55:57;;;;;;;10.73;4.97;;;1.80;99.90;;;;;;4975836;28;20113;-77
2022/12/08 09:59:00;;;;;;;13.27;4.72;;;1.90;99.90;;;;;;4971933;28;20511;-79
2022/12/08 10:01:28;;;;;;;8.05;3.80;;;1.90;99.90;;;;;;4977741;28;20027;-79
2022/12/08 10:04:00;;;;;;;6.50;3.38;;;2.00;99.90;;;;;;4974917;28;20031;-79
2022/12/08 10:06:44;;;;;;;5.95;3.25;;;2.00;99.90;;;;;;4975947;28;20019;-79
2022/12/08 10:09:22;;;;;;;7.35;4.00;;;2.00;99.90;;;;;;4976531;28;20030;-78
2022/12/08 10:11:52;;;;;;;8.85;3.13;;;2.10;99.90;;;;;;4983264;28;20034;-79
2022/12/08 10:14:41;;;;;;;6.40;3.35;;;2.20;99.90;;;;;;4972786;28;20066;-79
2022/12/08 10:17:26;;;;;;;6.30;2.70;;;2.20;99.90;;;;;;4965250;28;20039;-78
2022/12/08 10:20:00;;;;;;;7.53;3.00;;;2.30;99.90;;;;;;4975443;28;20023;-78
2022/12/08 10:22:35;;;;;;;5.68;3.28;;;2.30;99.90;;;;;;4976662;28;20031;-79
2022/12/08 10:25:20;;;;;;;5.20;2.40;;;2.30;99.90;;;;;;4975870;28;20027;-79
2022/12/08 10:27:53;;;;;;;6.57;2.95;;;2.40;99.90;;;;;;4977673;28;20070;-79
2022/12/08 10:30:30;;;;;;;4.78;2.45;;;2.40;99.90;;;;;;4981739;28;20023;-79
2022/12/08 10:32:56;;;;;;;7.65;4.00;;;2.50;99.90;;;;;;4977416;28;20066;-79
2022/12/08 10:35:22;;;;;;;7.22;3.63;;;2.50;99.90;;;;;;4978254;28;20046;-79
2022/12/08 10:38:02;;;;;;;6.90;3.20;;;2.60;99.90;;;;;;4975733;28;20023;-79
2022/12/08 10:40:35;;;;;;;4.78;2.72;;;2.70;99.90;;;;;;4992110;28;20030;-79
2022/12/08 10:43:03;;;;;;;5.18;2.97;;;2.80;99.90;;;;;;4984122;28;20034;-79
2022/12/08 10:45:37;;;;;;;8.05;3.83;;;2.80;99.90;;;;;;4983270;28;20046;-79
2022/12/08 10:48:12;;;;;;;6.15;3.28;;;2.90;99.90;;;;;;4978213;28;20054;-79
2022/12/08 10:50:46;;;;;;;4.45;2.70;;;3.00;99.90;;;;;;4979359;28;20539;-80
2022/12/08 10:53:25;;;;;;;4.60;2.47;;;3.00;99.90;;;;;;4981618;28;20058;-79
2022/12/08 10:56:02;;;;;;;6.28;3.10;;;3.00;99.90;;;;;;4984490;28;20037;-79
2022/12/08 10:58:34;;;;;;;5.20;2.63;;;3.00;99.90;;;;;;4980962;28;20037;-79
2022/12/08 11:01:20;;;;;;;7.93;3.63;;;3.00;99.90;;;;;;4993793;23;20018;-74
2022/12/08 11:03:49;;;;;;;6.22;2.90;;;3.00;99.90;;;;;;5002493;28;20549;-78
2022/12/08 11:06:20;;;;;;;6.18;2.90;;;3.00;99.90;;;;;;4997739;28;20126;-76
2022/12/08 11:09:06;;;;;;;4.95;2.78;;;3.00;99.90;;;;;;4998161;28;20026;-78
2022/12/08 11:11:47;;;;;;;4.65;2.42;;;3.00;99.90;;;;;;4999057;28;20026;-78
2022/12/08 11:14:28;;;;;;;4.65;2.40;;;2.90;99.90;;;;;;4995664;28;20109;-76
2022/12/08 11:17:00;;;;;;;4.15;2.38;;;2.90;99.90;;;;;;5000336;28;20022;-78
2022/12/08 11:19:27;;;;;;;4.70;2.35;;;2.90;99.90;;;;;;4996290;28;20026;-78
2022/12/08 11:21:56;;;;;;;5.35;2.95;;;2.90;99.90;;;;;;4996077;28;20058;-77
2022/12/08 11:24:34;;;;;;;7.55;3.25;;;2.90;99.90;;;;;;4988692;28;20033;-78
2022/12/08 11:27:05;;;;;;;5.53;2.60;;;2.90;99.90;;;;;;4990801;28;20022;-77
2022/12/08 11:29:34;;;;;;;7.65;2.40;;;2.90;99.90;;;;;;4998648;28;20022;-77
2022/12/08 11:32:12;;;;;;;7.32;3.75;;;2.90;99.90;;;;;;4984690;28;20039;-76
2022/12/08 11:34:49;;;;;;;4.93;2.55;;;2.90;99.90;;;;;;4996091;28;20077;-75
2022/12/08 11:37:36;;;;;;;3.47;1.88;;;2.80;99.90;;;;;;4997021;28;20100;-77
2022/12/08 11:40:43;;;;;;;5.35;2.30;;;2.80;99.90;;;;;;4993852;28;20018;-77
2022/12/08 11:43:20;;;;;;;5.50;2.30;;;2.80;99.90;;;;;;4934057;29;20036;-76
2022/12/08 11:45:51;;;;;;;5.53;2.17;;;2.80;99.90;;;;;;4985857;28;20026;-77
2022/12/08 11:48:22;;;;;;;4.07;2.30;;;2.80;99.90;;;;;;4993031;28;21039;-76
2022/12/08 11:51:26;;;;;;;3.60;1.80;;;2.90;99.90;;;;;;4991702;28;20015;-76
2022/12/08 11:54:22;;;;;;;5.22;2.08;;;2.90;99.90;;;;;;4940766;28;20476;-76
2022/12/08 11:56:57;;;;;;;5.72;2.40;;;2.90;99.90;;;;;;4989724;28;20141;-75
2022/12/08 11:59:33;;;;;;;4.53;2.45;;;3.00;99.90;;;;;;4995831;28;20464;-76
2022/12/08 12:02:04;;;;;;;7.38;2.92;;;2.90;99.90;;;;;;4993833;28;20046;-78
2022/12/08 12:04:49;;;;;;;4.55;2.42;;;2.90;99.90;;;;;;4989575;28;20056;-77
2022/12/08 12:07:33;;;;;;;7.18;2.35;;;2.90;99.90;;;;;;4995232;28;20018;-77
2022/12/08 12:10:21;;;;;;;3.35;2.10;;;2.90;99.90;;;;;;4994125;28;20030;-77
2022/12/08 12:13:02;;;;;;;4.18;2.78;;;2.90;99.90;;;;;;4994155;28;20027;-77
2022/12/08 12:16:09;;;;;;;4.10;1.92;;;2.90;99.90;;;;;;4998190;28;20130;-75
2022/12/08 12:18:45;;;;;;;6.45;2.38;;;2.80;99.90;;;;;;4959233;28;20143;-78
2022/12/08 12:21:22;;;;;;;5.47;2.38;;;2.80;99.90;;;;;;4991935;28;20030;-77
2022/12/08 12:24:29;;;;;;;5.80;2.35;;;2.80;99.90;;;;;;4988845;28;20104;-77
2022/12/08 12:27:06;;;;;;;5.40;2.33;;;2.90;99.90;;;;;;4992507;28;20015;-77
2022/12/08 12:29:46;;;;;;;5.45;2.40;;;2.90;99.90;;;;;;4994539;28;20084;-78
2022/12/08 12:32:12;;;;;;;4.45;2.25;;;3.00;99.90;;;;;;5001060;28;20026;-78
2022/12/08 12:34:59;;;;;;;5.15;2.53;;;3.00;99.90;;;;;;4992669;28;20033;-76
2022/12/08 12:37:40;;;;;;;6.10;2.65;;;3.00;99.90;;;;;;4982371;28;20081;-78
2022/12/08 12:40:21;;;;;;;5.95;2.63;;;3.00;99.90;;;;;;4985682;28;20116;-77
2022/12/08 12:43:01;;;;;;;4.40;2.20;;;3.00;99.90;;;;;;4995120;28;20037;-77
2022/12/08 12:45:30;;;;;;;4.53;1.75;;;3.00;99.90;;;;;;4995358;28;20035;-77
2022/12/08 12:47:56;;;;;;;4.68;2.30;;;3.00;99.90;;;;;;4993722;28;20608;-78
2022/12/08 12:50:45;;;;;;;7.32;2.45;;;3.10;99.90;;;;;;4992639;28;20033;-78
2022/12/08 12:53:20;;;;;;;3.30;1.65;;;3.10;99.90;;;;;;4995030;28;20490;-77
2022/12/08 12:56:02;;;;;;;4.55;1.67;;;3.10;99.90;;;;;;4994973;28;20037;-78
2022/12/08 12:58:35;;;;;;;3.55;1.80;;;3.10;99.90;;;;;;4991269;28;20487;-76
2022/12/08 13:01:10;;;;;;;3.88;2.00;;;3.10;99.90;;;;;;5008604;28;20033;-76
2022/12/08 13:03:41;;;;;;;4.72;1.98;;;3.20;99.90;;;;;;4993558;28;20022;-77
2022/12/08 13:06:11;;;;;;;5.00;2.05;;;3.20;99.90;;;;;;4993239;28;20035;-76
2022/12/08 13:08:39;;;;;;;3.55;1.50;;;3.20;99.90;;;;;;4993857;28;20470;-78
2022/12/08 13:11:09;;;;;;;4.72;2.00;;;3.20;99.90;;;;;;4992370;28;20033;-76
2022/12/08 13:13:37;;;;;;;7.78;2.38;;;3.20;99.90;;;;;;4995564;28;20030;-73
2022/12/08 13:16:08;;;;;;;5.30;2.10;;;3.20;99.90;;;;;;4992442;28;20351;-75